sensor_id;sensor_type;location;lat;lon;timestamp;pressure;altitude;pressure_sealevel;temperature;humidity
61618;BME280;47518;51.776;9.370;2023-02-01T00:01:17;100347.44;;;4.81;79.97
61618;BME280;47518;51.776;9.370;2023-02-01T00:03:43;100348.16;;;4.93;79.55
61618;BME280;47518;51.776;9.370;2023-02-01T00:06:09;100340.38;;;4.90;79.46
61618;BME280;47518;51.776;9.370;2023-02-01T00:08:35;100326.44;;;4.85;79.74
61618;BME280;47518;51.776;9.370;2023-02-01T00:11:01;100339.78;;;4.77;80.30
61618;BME280;47518;51.776;9.370;2023-02-01T00:13:29;100340.06;;;4.83;79.17
61618;BME280;47518;51.776;9.370;2023-02-01T00:15:54;100347.00;;;4.86;79.89
61618;BME280;47518;51.776;9.370;2023-02-01T00:18:20;100325.31;;;4.78;79.37
61618;BME280;47518;51.776;9.370;2023-02-01T00:20:46;100321.91;;;4.76;79.72
61618;BME280;47518;51.776;9.370;2023-02-01T00:23:12;100331.41;;;4.80;79.72
61618;BME280;47518;51.776;9.370;2023-02-01T00:25:37;100328.88;;;4.78;80.03
61618;BME280;47518;51.776;9.370;2023-02-01T00:28:02;100326.00;;;4.70;80.13
61618;BME280;47518;51.776;9.370;2023-02-01T00:30:27;100311.84;;;4.78;79.68
61618;BME280;47518;51.776;9.370;2023-02-01T00:32:53;100324.16;;;4.71;79.54
61618;BME280;47518;51.776;9.370;2023-02-01T00:35:18;100322.91;;;4.65;80.22
61618;BME280;47518;51.776;9.370;2023-02-01T00:37:43;100330.84;;;4.76;79.98
61618;BME280;47518;51.776;9.370;2023-02-01T00:40:09;100325.00;;;4.61;80.49
61618;BME280;47518;51.776;9.370;2023-02-01T00:42:35;100334.38;;;4.67;79.90
61618;BME280;47518;51.776;9.370;2023-02-01T00:45:00;100332.66;;;4.66;80.72
61618;BME280;47518;51.776;9.370;2023-02-01T00:47:25;100341.47;;;4.68;79.81
61618;BME280;47518;51.776;9.370;2023-02-01T00:49:51;100361.00;;;4.70;79.29
61618;BME280;47518;51.776;9.370;2023-02-01T00:52:17;100344.47;;;4.75;79.42
61618;BME280;47518;51.776;9.370;2023-02-01T00:54:42;100347.25;;;4.73;79.65
61618;BME280;47518;51.776;9.370;2023-02-01T00:57:07;100334.94;;;4.71;80.12
61618;BME280;47518;51.776;9.370;2023-02-01T00:59:33;100346.28;;;4.74;79.72
61618;BME280;47518;51.776;9.370;2023-02-01T01:01:58;100334.69;;;4.83;79.06
61618;BME280;47518;51.776;9.370;2023-02-01T01:04:23;100326.28;;;4.67;78.96
61618;BME280;47518;51.776;9.370;2023-02-01T01:06:49;100329.25;;;4.74;79.04
61618;BME280;47518;51.776;9.370;2023-02-01T01:09:14;100317.06;;;4.69;79.07
61618;BME280;47518;51.776;9.370;2023-02-01T01:11:39;100324.72;;;4.74;78.93
61618;BME280;47518;51.776;9.370;2023-02-01T01:14:06;100314.38;;;4.69;78.60
61618;BME280;47518;51.776;9.370;2023-02-01T01:16:32;100321.63;;;4.69;79.04
61618;BME280;47518;51.776;9.370;2023-02-01T01:18:58;100309.69;;;4.62;78.29
61618;BME280;47518;51.776;9.370;2023-02-01T01:21:24;100325.44;;;4.66;78.40
61618;BME280;47518;51.776;9.370;2023-02-01T01:23:50;100305.31;;;4.71;78.52
61618;BME280;47518;51.776;9.370;2023-02-01T01:26:19;100326.31;;;4.77;77.67
61618;BME280;47518;51.776;9.370;2023-02-01T01:28:45;100298.69;;;4.75;78.20
61618;BME280;47518;51.776;9.370;2023-02-01T01:31:12;100313.97;;;4.74;78.66
61618;BME280;47518;51.776;9.370;2023-02-01T01:33:38;100296.38;;;4.70;78.50
61618;BME280;47518;51.776;9.370;2023-02-01T01:36:08;100305.03;;;4.64;78.76
61618;BME280;47518;51.776;9.370;2023-02-01T01:38:36;100290.59;;;4.65;78.37
61618;BME280;47518;51.776;9.370;2023-02-01T01:41:02;100299.09;;;4.80;78.07
61618;BME280;47518;51.776;9.370;2023-02-01T01:43:46;100282.34;;;4.66;79.30
61618;BME280;47518;51.776;9.370;2023-02-01T01:46:16;100288.47;;;4.78;78.23
61618;BME280;47518;51.776;9.370;2023-02-01T01:48:42;100298.97;;;4.91;78.18
61618;BME280;47518;51.776;9.370;2023-02-01T01:51:10;100293.84;;;4.78;78.63
61618;BME280;47518;51.776;9.370;2023-02-01T01:53:42;100288.03;;;4.83;77.71
61618;BME280;47518;51.776;9.370;2023-02-01T01:56:08;100283.94;;;4.79;78.01
61618;BME280;47518;51.776;9.370;2023-02-01T01:58:34;100295.09;;;4.74;77.74
61618;BME280;47518;51.776;9.370;2023-02-01T02:01:00;100291.19;;;4.88;77.17
61618;BME280;47518;51.776;9.370;2023-02-01T02:03:32;100287.63;;;4.87;77.19
61618;BME280;47518;51.776;9.370;2023-02-01T02:06:02;100289.88;;;4.92;77.84
61618;BME280;47518;51.776;9.370;2023-02-01T02:08:28;100292.59;;;4.92;77.27
61618;BME280;47518;51.776;9.370;2023-02-01T02:10:53;100284.66;;;5.00;76.44
61618;BME280;47518;51.776;9.370;2023-02-01T02:13:29;100281.25;;;4.98;77.41
61618;BME280;47518;51.776;9.370;2023-02-01T02:29:32;100272.28;;;4.97;79.48
61618;BME280;47518;51.776;9.370;2023-02-01T02:51:55;100250.03;;;5.05;79.19
61618;BME280;47518;51.776;9.370;2023-02-01T02:54:47;100244.50;;;4.97;79.16
61618;BME280;47518;51.776;9.370;2023-02-01T02:57:19;100236.16;;;5.00;79.28
61618;BME280;47518;51.776;9.370;2023-02-01T03:00:09;100232.75;;;4.88;79.58
61618;BME280;47518;51.776;9.370;2023-02-01T03:02:56;100231.31;;;5.13;78.97
61618;BME280;47518;51.776;9.370;2023-02-01T03:05:44;100226.09;;;5.02;78.09
61618;BME280;47518;51.776;9.370;2023-02-01T03:08:12;100220.41;;;5.05;78.77
61618;BME280;47518;51.776;9.370;2023-02-01T03:10:45;100216.69;;;5.16;78.49
61618;BME280;47518;51.776;9.370;2023-02-01T03:26:20;100187.06;;;5.06;77.09
61618;BME280;47518;51.776;9.370;2023-02-01T03:28:54;100172.75;;;5.06;76.46
61618;BME280;47518;51.776;9.370;2023-02-01T03:31:23;100177.13;;;5.07;76.71
61618;BME280;47518;51.776;9.370;2023-02-01T03:33:49;100186.06;;;5.07;76.29
61618;BME280;47518;51.776;9.370;2023-02-01T03:36:35;100184.81;;;5.11;76.99
61618;BME280;47518;51.776;9.370;2023-02-01T03:39:07;100194.59;;;5.12;76.76
61618;BME280;47518;51.776;9.370;2023-02-01T03:47:10;100177.44;;;5.04;77.53
61618;BME280;47518;51.776;9.370;2023-02-01T03:49:44;100181.13;;;5.03;77.52
61618;BME280;47518;51.776;9.370;2023-02-01T03:52:14;100176.59;;;5.03;78.36
61618;BME280;47518;51.776;9.370;2023-02-01T03:54:41;100164.13;;;4.92;78.78
61618;BME280;47518;51.776;9.370;2023-02-01T03:57:11;100163.56;;;4.89;78.35
61618;BME280;47518;51.776;9.370;2023-02-01T03:59:41;100157.03;;;4.82;79.28
61618;BME280;47518;51.776;9.370;2023-02-01T04:02:07;100148.28;;;4.80;78.93
61618;BME280;47518;51.776;9.370;2023-02-01T04:04:34;100148.56;;;4.77;80.96
61618;BME280;47518;51.776;9.370;2023-02-01T04:07:00;100144.44;;;4.73;79.17
61618;BME280;47518;51.776;9.370;2023-02-01T04:09:26;100141.75;;;4.73;79.65
61618;BME280;47518;51.776;9.370;2023-02-01T04:11:51;100142.88;;;4.70;79.04
61618;BME280;47518;51.776;9.370;2023-02-01T04:14:17;100141.59;;;4.74;78.63
61618;BME280;47518;51.776;9.370;2023-02-01T04:16:42;100135.78;;;4.79;78.09
61618;BME280;47518;51.776;9.370;2023-02-01T04:19:08;100142.44;;;4.84;78.32
61618;BME280;47518;51.776;9.370;2023-02-01T04:21:33;100141.59;;;4.84;77.36
61618;BME280;47518;51.776;9.370;2023-02-01T04:23:58;100146.56;;;4.88;77.31
61618;BME280;47518;51.776;9.370;2023-02-01T04:26:24;100131.09;;;4.90;77.12
61618;BME280;47518;51.776;9.370;2023-02-01T04:28:49;100136.75;;;4.97;77.92
61618;BME280;47518;51.776;9.370;2023-02-01T04:31:16;100130.09;;;5.01;76.50
61618;BME280;47518;51.776;9.370;2023-02-01T04:33:42;100122.56;;;5.05;76.79
61618;BME280;47518;51.776;9.370;2023-02-01T04:36:07;100116.91;;;4.98;77.55
61618;BME280;47518;51.776;9.370;2023-02-01T04:38:33;100110.66;;;4.97;76.36
61618;BME280;47518;51.776;9.370;2023-02-01T04:40:58;100111.66;;;4.96;77.43
61618;BME280;47518;51.776;9.370;2023-02-01T04:43:24;100120.63;;;4.87;78.20
61618;BME280;47518;51.776;9.370;2023-02-01T04:45:50;100117.25;;;4.76;80.15
61618;BME280;47518;51.776;9.370;2023-02-01T04:48:17;100118.34;;;4.73;80.95
61618;BME280;47518;51.776;9.370;2023-02-01T04:50:44;100118.09;;;4.66;80.86
61618;BME280;47518;51.776;9.370;2023-02-01T04:53:12;100107.03;;;4.60;80.73
61618;BME280;47518;51.776;9.370;2023-02-01T04:55:39;100109.19;;;4.66;80.47
61618;BME280;47518;51.776;9.370;2023-02-01T04:58:04;100121.78;;;4.65;81.11
61618;BME280;47518;51.776;9.370;2023-02-01T05:00:29;100116.66;;;4.72;80.62
61618;BME280;47518;51.776;9.370;2023-02-01T05:02:54;100109.31;;;4.64;81.73
61618;BME280;47518;51.776;9.370;2023-02-01T05:05:20;100105.19;;;4.70;82.32
61618;BME280;47518;51.776;9.370;2023-02-01T05:07:45;100100.25;;;4.56;82.46
61618;BME280;47518;51.776;9.370;2023-02-01T05:10:11;100102.94;;;4.56;82.68
61618;BME280;47518;51.776;9.370;2023-02-01T05:12:37;100085.09;;;4.55;82.50
61618;BME280;47518;51.776;9.370;2023-02-01T05:39:12;100091.88;;;3.91;91.33
61618;BME280;47518;51.776;9.370;2023-02-01T05:41:37;100092.44;;;3.85;93.23
61618;BME280;47518;51.776;9.370;2023-02-01T05:44:03;100098.34;;;3.79;92.04
61618;BME280;47518;51.776;9.370;2023-02-01T05:46:28;100092.28;;;3.77;93.86
61618;BME280;47518;51.776;9.370;2023-02-01T05:48:54;100097.50;;;3.69;95.62
61618;BME280;47518;51.776;9.370;2023-02-01T05:51:19;100102.97;;;3.58;96.08
61618;BME280;47518;51.776;9.370;2023-02-01T05:53:44;100087.97;;;3.55;96.13
61618;BME280;47518;51.776;9.370;2023-02-01T05:56:10;100091.94;;;3.51;95.83
61618;BME280;47518;51.776;9.370;2023-02-01T05:58:35;100089.38;;;3.49;96.75
61618;BME280;47518;51.776;9.370;2023-02-01T06:01:02;100101.72;;;3.62;96.27
61618;BME280;47518;51.776;9.370;2023-02-01T06:03:28;100095.34;;;3.53;95.83
61618;BME280;47518;51.776;9.370;2023-02-01T06:05:53;100097.03;;;3.54;96.72
61618;BME280;47518;51.776;9.370;2023-02-01T06:08:18;100096.19;;;3.54;97.11
61618;BME280;47518;51.776;9.370;2023-02-01T06:10:44;100089.28;;;3.61;96.74
61618;BME280;47518;51.776;9.370;2023-02-01T06:13:09;100089.66;;;3.56;96.97
61618;BME280;47518;51.776;9.370;2023-02-01T06:15:35;100093.50;;;3.54;97.45
61618;BME280;47518;51.776;9.370;2023-02-01T06:18:03;100096.03;;;3.55;96.50
61618;BME280;47518;51.776;9.370;2023-02-01T06:20:29;100075.25;;;3.57;96.15
61618;BME280;47518;51.776;9.370;2023-02-01T06:22:55;100085.16;;;3.57;96.27
61618;BME280;47518;51.776;9.370;2023-02-01T06:25:20;100064.06;;;3.52;96.48
61618;BME280;47518;51.776;9.370;2023-02-01T06:27:46;100082.59;;;3.55;95.43
61618;BME280;47518;51.776;9.370;2023-02-01T06:30:15;100078.78;;;3.58;94.89
61618;BME280;47518;51.776;9.370;2023-02-01T06:32:41;100077.41;;;3.63;95.59
61618;BME280;47518;51.776;9.370;2023-02-01T06:35:08;100074.16;;;3.60;95.60
61618;BME280;47518;51.776;9.370;2023-02-01T06:37:36;100080.25;;;3.71;95.82
61618;BME280;47518;51.776;9.370;2023-02-01T06:40:02;100074.88;;;3.81;94.44
61618;BME280;47518;51.776;9.370;2023-02-01T06:42:27;100063.16;;;3.82;94.16
61618;BME280;47518;51.776;9.370;2023-02-01T06:44:53;100078.56;;;3.90;93.25
61618;BME280;47518;51.776;9.370;2023-02-01T06:47:18;100082.81;;;4.02;93.54
61618;BME280;47518;51.776;9.370;2023-02-01T06:49:44;100076.75;;;4.09;92.74
61618;BME280;47518;51.776;9.370;2023-02-01T06:52:09;100084.84;;;4.19;91.22
61618;BME280;47518;51.776;9.370;2023-02-01T06:54:34;100089.63;;;4.25;90.35
61618;BME280;47518;51.776;9.370;2023-02-01T06:57:02;100088.63;;;4.26;90.59
61618;BME280;47518;51.776;9.370;2023-02-01T06:59:28;100098.00;;;4.32;89.11
61618;BME280;47518;51.776;9.370;2023-02-01T07:01:53;100090.06;;;4.40;89.60
61618;BME280;47518;51.776;9.370;2023-02-01T07:04:18;100088.94;;;4.43;88.02
61618;BME280;47518;51.776;9.370;2023-02-01T07:06:44;100091.19;;;4.47;88.22
61618;BME280;47518;51.776;9.370;2023-02-01T07:09:09;100087.09;;;4.43;88.03
61618;BME280;47518;51.776;9.370;2023-02-01T07:11:37;100092.59;;;4.51;87.48
61618;BME280;47518;51.776;9.370;2023-02-01T07:14:06;100087.94;;;4.53;87.23
61618;BME280;47518;51.776;9.370;2023-02-01T07:16:32;100085.81;;;4.47;87.43
61618;BME280;47518;51.776;9.370;2023-02-01T07:18:58;100085.81;;;4.47;86.55
61618;BME280;47518;51.776;9.370;2023-02-01T07:21:24;100109.72;;;4.60;85.71
61618;BME280;47518;51.776;9.370;2023-02-01T07:23:50;100101.34;;;4.63;85.45
61618;BME280;47518;51.776;9.370;2023-02-01T07:26:15;100122.19;;;4.61;86.81
61618;BME280;47518;51.776;9.370;2023-02-01T07:28:41;100112.41;;;4.60;86.84
61618;BME280;47518;51.776;9.370;2023-02-01T07:31:12;100110.47;;;4.52;86.56
61618;BME280;47518;51.776;9.370;2023-02-01T07:33:41;100118.53;;;4.52;86.51
61618;BME280;47518;51.776;9.370;2023-02-01T07:36:11;100126.88;;;4.49;88.23
61618;BME280;47518;51.776;9.370;2023-02-01T07:38:37;100119.38;;;4.43;88.30
61618;BME280;47518;51.776;9.370;2023-02-01T07:41:04;100129.88;;;4.46;88.30
61618;BME280;47518;51.776;9.370;2023-02-01T07:43:30;100131.00;;;4.53;88.28
61618;BME280;47518;51.776;9.370;2023-02-01T07:45:56;100127.31;;;4.45;87.34
61618;BME280;47518;51.776;9.370;2023-02-01T07:48:23;100124.19;;;4.39;87.46
61618;BME280;47518;51.776;9.370;2023-02-01T07:50:57;100134.69;;;4.43;87.53
61618;BME280;47518;51.776;9.370;2023-02-01T07:53:23;100123.22;;;4.41;88.11
61618;BME280;47518;51.776;9.370;2023-02-01T07:55:48;100128.31;;;4.44;88.24
61618;BME280;47518;51.776;9.370;2023-02-01T07:58:13;100125.91;;;4.41;88.32
61618;BME280;47518;51.776;9.370;2023-02-01T08:00:45;100147.31;;;4.42;88.24
61618;BME280;47518;51.776;9.370;2023-02-01T08:03:30;100132.00;;;4.33;88.38
61618;BME280;47518;51.776;9.370;2023-02-01T08:05:56;100127.59;;;4.32;88.27
61618;BME280;47518;51.776;9.370;2023-02-01T08:08:22;100142.75;;;4.23;89.29
61618;BME280;47518;51.776;9.370;2023-02-01T08:10:51;100130.44;;;4.30;87.39
61618;BME280;47518;51.776;9.370;2023-02-01T08:13:19;100154.91;;;4.27;88.97
61618;BME280;47518;51.776;9.370;2023-02-01T08:15:45;100160.31;;;4.27;88.48
61618;BME280;47518;51.776;9.370;2023-02-01T08:18:10;100155.50;;;4.31;89.08
61618;BME280;47518;51.776;9.370;2023-02-01T08:20:36;100149.44;;;4.29;88.20
61618;BME280;47518;51.776;9.370;2023-02-01T08:23:07;100158.19;;;4.31;87.61
61618;BME280;47518;51.776;9.370;2023-02-01T08:25:33;100149.25;;;4.50;83.95
61618;BME280;47518;51.776;9.370;2023-02-01T08:28:03;100133.56;;;4.55;84.41
61618;BME280;47518;51.776;9.370;2023-02-01T08:30:28;100170.25;;;4.65;84.42
61618;BME280;47518;51.776;9.370;2023-02-01T08:32:54;100158.19;;;4.69;83.37
61618;BME280;47518;51.776;9.370;2023-02-01T08:35:19;100141.91;;;4.71;82.32
61618;BME280;47518;51.776;9.370;2023-02-01T08:37:45;100152.66;;;4.81;82.34
61618;BME280;47518;51.776;9.370;2023-02-01T08:40:10;100147.28;;;4.81;84.66
61618;BME280;47518;51.776;9.370;2023-02-01T08:42:36;100144.19;;;4.66;85.80
61618;BME280;47518;51.776;9.370;2023-02-01T08:45:20;100157.75;;;4.74;84.54
61618;BME280;47518;51.776;9.370;2023-02-01T08:47:46;100165.44;;;4.79;83.82
61618;BME280;47518;51.776;9.370;2023-02-01T08:50:16;100165.97;;;4.73;83.90
61618;BME280;47518;51.776;9.370;2023-02-01T08:52:41;100154.22;;;4.74;84.20
61618;BME280;47518;51.776;9.370;2023-02-01T08:55:07;100165.69;;;4.85;82.67
61618;BME280;47518;51.776;9.370;2023-02-01T08:57:34;100145.56;;;4.89;82.64
61618;BME280;47518;51.776;9.370;2023-02-01T08:59:59;100155.34;;;5.00;82.38
61618;BME280;47518;51.776;9.370;2023-02-01T09:02:25;100152.31;;;5.13;81.84
61618;BME280;47518;51.776;9.370;2023-02-01T09:04:51;100140.97;;;5.09;80.68
61618;BME280;47518;51.776;9.370;2023-02-01T09:07:17;100138.81;;;5.22;80.79
61618;BME280;47518;51.776;9.370;2023-02-01T09:09:45;100138.50;;;5.35;80.73
61618;BME280;47518;51.776;9.370;2023-02-01T09:12:11;100153.13;;;5.33;81.64
61618;BME280;47518;51.776;9.370;2023-02-01T09:14:36;100146.47;;;5.17;80.09
61618;BME280;47518;51.776;9.370;2023-02-01T09:17:02;100143.22;;;5.23;80.15
61618;BME280;47518;51.776;9.370;2023-02-01T09:19:28;100145.75;;;5.35;79.34
61618;BME280;47518;51.776;9.370;2023-02-01T09:21:54;100149.94;;;5.47;79.56
61618;BME280;47518;51.776;9.370;2023-02-01T09:24:19;100149.13;;;5.37;79.88
61618;BME280;47518;51.776;9.370;2023-02-01T09:26:47;100155.53;;;5.26;80.72
61618;BME280;47518;51.776;9.370;2023-02-01T09:29:13;100161.09;;;5.24;81.11
61618;BME280;47518;51.776;9.370;2023-02-01T09:31:40;100168.50;;;5.13;81.77
61618;BME280;47518;51.776;9.370;2023-02-01T09:34:06;100159.66;;;5.20;80.00
61618;BME280;47518;51.776;9.370;2023-02-01T09:36:32;100186.03;;;5.26;79.57
61618;BME280;47518;51.776;9.370;2023-02-01T09:38:58;100177.66;;;5.30;79.02
61618;BME280;47518;51.776;9.370;2023-02-01T09:41:48;100184.88;;;5.39;78.88
61618;BME280;47518;51.776;9.370;2023-02-01T09:44:25;100178.66;;;5.28;79.45
61618;BME280;47518;51.776;9.370;2023-02-01T09:46:58;100190.88;;;5.33;79.20
61618;BME280;47518;51.776;9.370;2023-02-01T09:49:30;100180.03;;;5.42;78.15
61618;BME280;47518;51.776;9.370;2023-02-01T09:51:59;100177.34;;;5.42;77.80
61618;BME280;47518;51.776;9.370;2023-02-01T09:54:29;100180.59;;;5.46;77.39
61618;BME280;47518;51.776;9.370;2023-02-01T09:57:14;100181.47;;;5.46;77.42
61618;BME280;47518;51.776;9.370;2023-02-01T09:59:43;100205.13;;;5.52;76.28
61618;BME280;47518;51.776;9.370;2023-02-01T10:02:15;100197.63;;;5.46;76.97
61618;BME280;47518;51.776;9.370;2023-02-01T10:04:41;100193.81;;;5.39;77.14
61618;BME280;47518;51.776;9.370;2023-02-01T10:07:31;100180.19;;;5.41;75.85
61618;BME280;47518;51.776;9.370;2023-02-01T10:36:23;100191.94;;;5.49;76.01
61618;BME280;47518;51.776;9.370;2023-02-01T10:38:52;100177.72;;;5.57;74.89
61618;BME280;47518;51.776;9.370;2023-02-01T10:41:20;100179.16;;;5.51;76.46
61618;BME280;47518;51.776;9.370;2023-02-01T10:43:50;100171.75;;;5.53;75.58
61618;BME280;47518;51.776;9.370;2023-02-01T10:46:18;100178.91;;;5.45;74.94
61618;BME280;47518;51.776;9.370;2023-02-01T10:48:43;100170.50;;;5.57;75.01
61618;BME280;47518;51.776;9.370;2023-02-01T10:51:22;100167.22;;;5.54;75.00
61618;BME280;47518;51.776;9.370;2023-02-01T10:54:00;100164.25;;;5.57;75.19
61618;BME280;47518;51.776;9.370;2023-02-01T10:56:30;100150.41;;;5.70;74.80
61618;BME280;47518;51.776;9.370;2023-02-01T10:59:05;100137.78;;;5.70;74.76
61618;BME280;47518;51.776;9.370;2023-02-01T11:01:37;100135.66;;;5.64;74.48
61618;BME280;47518;51.776;9.370;2023-02-01T11:04:09;100128.63;;;5.81;74.99
61618;BME280;47518;51.776;9.370;2023-02-01T11:06:48;100122.94;;;5.84;74.51
61618;BME280;47518;51.776;9.370;2023-02-01T11:22:25;100151.53;;;5.67;75.46
61618;BME280;47518;51.776;9.370;2023-02-01T11:24:53;100144.13;;;5.79;75.13
61618;BME280;47518;51.776;9.370;2023-02-01T11:27:23;100142.16;;;5.71;75.23
61618;BME280;47518;51.776;9.370;2023-02-01T11:30:27;100150.69;;;5.67;75.34
61618;BME280;47518;51.776;9.370;2023-02-01T11:32:55;100125.66;;;5.56;75.88
61618;BME280;47518;51.776;9.370;2023-02-01T11:35:21;100126.56;;;5.65;75.83
61618;BME280;47518;51.776;9.370;2023-02-01T11:37:54;100112.66;;;5.70;75.94
61618;BME280;47518;51.776;9.370;2023-02-01T11:53:42;100076.13;;;5.75;75.48
61618;BME280;47518;51.776;9.370;2023-02-01T11:56:33;100063.78;;;5.73;75.83
61618;BME280;47518;51.776;9.370;2023-02-01T12:02:11;100064.66;;;5.73;74.59
61618;BME280;47518;51.776;9.370;2023-02-01T12:18:37;100007.38;;;5.62;76.87
61618;BME280;47518;51.776;9.370;2023-02-01T13:40:50;99930.78;;;4.17;96.03
61618;BME280;47518;51.776;9.370;2023-02-01T13:43:23;99931.19;;;4.13;97.36
61618;BME280;47518;51.776;9.370;2023-02-01T13:45:52;99961.47;;;4.15;97.85
61618;BME280;47518;51.776;9.370;2023-02-01T13:48:38;99963.31;;;4.14;97.47
61618;BME280;47518;51.776;9.370;2023-02-01T13:51:08;99959.09;;;4.12;96.80
61618;BME280;47518;51.776;9.370;2023-02-01T13:53:35;99930.34;;;4.12;95.96
61618;BME280;47518;51.776;9.370;2023-02-01T13:56:09;99948.72;;;4.26;95.73
61618;BME280;47518;51.776;9.370;2023-02-01T13:58:39;99920.09;;;4.25;95.61
61618;BME280;47518;51.776;9.370;2023-02-01T14:04:06;99937.06;;;4.35;95.92
61618;BME280;47518;51.776;9.370;2023-02-01T14:06:53;99926.00;;;4.48;94.79
61618;BME280;47518;51.776;9.370;2023-02-01T14:09:31;99926.22;;;4.64;93.53
61618;BME280;47518;51.776;9.370;2023-02-01T14:15:25;99917.38;;;4.72;94.22
61618;BME280;47518;51.776;9.370;2023-02-01T14:17:51;99928.63;;;4.67;94.06
61618;BME280;47518;51.776;9.370;2023-02-01T14:20:40;99927.63;;;4.68;93.07
61618;BME280;47518;51.776;9.370;2023-02-01T14:23:13;99913.84;;;4.72;92.56
61618;BME280;47518;51.776;9.370;2023-02-01T14:25:40;99901.34;;;4.80;92.12
61618;BME280;47518;51.776;9.370;2023-02-01T14:28:12;99910.66;;;4.86;90.17
61618;BME280;47518;51.776;9.370;2023-02-01T14:30:38;99897.75;;;4.89;90.95
61618;BME280;47518;51.776;9.370;2023-02-01T14:33:17;99890.38;;;4.91;91.59
61618;BME280;47518;51.776;9.370;2023-02-01T14:35:57;99910.75;;;4.94;90.97
61618;BME280;47518;51.776;9.370;2023-02-01T14:38:25;99906.38;;;4.93;91.38
61618;BME280;47518;51.776;9.370;2023-02-01T14:40:50;99923.00;;;4.88;92.54
61618;BME280;47518;51.776;9.370;2023-02-01T14:43:16;99942.97;;;4.86;93.56
61618;BME280;47518;51.776;9.370;2023-02-01T14:45:49;99950.66;;;4.81;94.09
61618;BME280;47518;51.776;9.370;2023-02-01T14:50:57;99950.28;;;4.76;95.03
61618;BME280;47518;51.776;9.370;2023-02-01T14:53:32;99961.34;;;4.63;96.40
61618;BME280;47518;51.776;9.370;2023-02-01T14:56:05;99998.19;;;4.62;96.67
61618;BME280;47518;51.776;9.370;2023-02-01T14:58:38;99988.88;;;4.57;97.23
61618;BME280;47518;51.776;9.370;2023-02-01T15:06:49;100012.56;;;4.44;96.71
61618;BME280;47518;51.776;9.370;2023-02-01T15:09:34;100030.44;;;4.16;96.95
61618;BME280;47518;51.776;9.370;2023-02-01T15:12:16;100015.72;;;4.10;98.13
61618;BME280;47518;51.776;9.370;2023-02-01T15:14:48;100011.63;;;3.96;97.40
61618;BME280;47518;51.776;9.370;2023-02-01T15:17:30;100002.56;;;3.97;96.70
61618;BME280;47518;51.776;9.370;2023-02-01T15:20:03;100010.78;;;4.05;97.88
61618;BME280;47518;51.776;9.370;2023-02-01T15:22:30;100006.38;;;4.04;96.59
61618;BME280;47518;51.776;9.370;2023-02-01T15:24:58;100016.16;;;3.96;96.63
61618;BME280;47518;51.776;9.370;2023-02-01T15:27:24;100007.41;;;3.94;96.35
61618;BME280;47518;51.776;9.370;2023-02-01T15:29:50;100017.84;;;4.16;94.80
61618;BME280;47518;51.776;9.370;2023-02-01T15:32:34;100003.69;;;4.04;95.63
61618;BME280;47518;51.776;9.370;2023-02-01T15:35:00;99998.28;;;4.04;94.57
61618;BME280;47518;51.776;9.370;2023-02-01T15:37:27;100013.72;;;3.93;95.16
61618;BME280;47518;51.776;9.370;2023-02-01T15:42:58;100015.31;;;3.86;96.47
61618;BME280;47518;51.776;9.370;2023-02-01T15:45:28;100010.63;;;3.97;95.33
61618;BME280;47518;51.776;9.370;2023-02-01T15:47:56;100020.53;;;3.87;94.64
61618;BME280;47518;51.776;9.370;2023-02-01T15:50:22;100031.59;;;3.84;94.81
61618;BME280;47518;51.776;9.370;2023-02-01T15:52:50;100032.13;;;3.78;94.62
61618;BME280;47518;51.776;9.370;2023-02-01T15:58:05;100052.41;;;3.82;95.80
61618;BME280;47518;51.776;9.370;2023-02-01T16:00:41;100053.53;;;3.99;94.54
61618;BME280;47518;51.776;9.370;2023-02-01T16:03:24;100043.75;;;3.98;93.94
61618;BME280;47518;51.776;9.370;2023-02-01T16:05:59;100045.19;;;4.21;94.07
61618;BME280;47518;51.776;9.370;2023-02-01T16:08:27;100052.41;;;4.11;94.11
61618;BME280;47518;51.776;9.370;2023-02-01T16:11:00;100058.91;;;4.18;93.51
61618;BME280;47518;51.776;9.370;2023-02-01T16:13:26;100055.66;;;4.24;94.27
61618;BME280;47518;51.776;9.370;2023-02-01T16:15:52;100053.25;;;4.41;92.57
61618;BME280;47518;51.776;9.370;2023-02-01T16:18:17;100061.44;;;4.39;92.24
61618;BME280;47518;51.776;9.370;2023-02-01T16:20:43;100041.63;;;4.11;94.44
61618;BME280;47518;51.776;9.370;2023-02-01T16:23:09;100049.56;;;4.22;94.45
61618;BME280;47518;51.776;9.370;2023-02-01T16:25:38;100037.94;;;4.31;93.48
61618;BME280;47518;51.776;9.370;2023-02-01T16:28:04;100049.00;;;4.28;94.19
61618;BME280;47518;51.776;9.370;2023-02-01T16:30:31;100053.94;;;4.52;92.22
61618;BME280;47518;51.776;9.370;2023-02-01T16:32:59;100051.41;;;4.41;92.53
61618;BME280;47518;51.776;9.370;2023-02-01T16:35:29;100069.09;;;4.44;92.84
61618;BME280;47518;51.776;9.370;2023-02-01T16:37:58;100074.47;;;4.53;93.04
61618;BME280;47518;51.776;9.370;2023-02-01T16:40:23;100073.47;;;4.54;93.31
61618;BME280;47518;51.776;9.370;2023-02-01T16:42:51;100075.47;;;4.43;93.80
61618;BME280;47518;51.776;9.370;2023-02-01T16:45:16;100079.25;;;4.69;91.32
61618;BME280;47518;51.776;9.370;2023-02-01T16:47:45;100088.63;;;4.55;93.51
61618;BME280;47518;51.776;9.370;2023-02-01T16:50:16;100081.81;;;4.61;93.14
61618;BME280;47518;51.776;9.370;2023-02-01T16:52:42;100086.09;;;4.63;92.67
61618;BME280;47518;51.776;9.370;2023-02-01T16:55:12;100083.25;;;4.65;92.01
61618;BME280;47518;51.776;9.370;2023-02-01T16:57:38;100073.41;;;4.74;91.10
61618;BME280;47518;51.776;9.370;2023-02-01T17:00:04;100081.94;;;4.69;91.92
61618;BME280;47518;51.776;9.370;2023-02-01T17:02:29;100081.50;;;4.74;91.09
61618;BME280;47518;51.776;9.370;2023-02-01T17:04:55;100089.47;;;4.75;90.03
61618;BME280;47518;51.776;9.370;2023-02-01T17:07:20;100087.47;;;4.77;90.87
61618;BME280;47518;51.776;9.370;2023-02-01T17:09:46;100083.75;;;4.88;89.10
61618;BME280;47518;51.776;9.370;2023-02-01T17:12:21;100093.38;;;4.90;89.50
61618;BME280;47518;51.776;9.370;2023-02-01T17:14:47;100111.25;;;4.91;89.62